createdAt,value
2023-02-18T00:02:33.843Z,9.06
2023-02-18T00:05:18.719Z,9.11
2023-02-18T00:08:03.525Z,9.46
2023-02-18T00:10:48.348Z,9.77
2023-02-18T00:13:33.093Z,9.25
2023-02-18T00:16:17.889Z,9.28
2023-02-18T00:19:02.824Z,9.67
2023-02-18T00:21:47.848Z,9.59
2023-02-18T00:24:32.732Z,10.09
2023-02-18T00:27:17.601Z,9.99
2023-02-18T00:30:02.616Z,10.95
2023-02-18T00:32:47.578Z,11.89
2023-02-18T00:35:32.552Z,12.22
2023-02-18T00:38:17.339Z,11.37
2023-02-18T00:41:02.415Z,11.80
2023-02-18T00:43:47.220Z,12.13
2023-02-18T00:46:32.300Z,12.01
2023-02-18T00:49:17.149Z,12.09
2023-02-18T00:52:02.106Z,12.07
2023-02-18T00:54:46.965Z,11.31
2023-02-18T00:57:31.940Z,11.79
2023-02-18T01:00:16.837Z,11.90
2023-02-18T01:03:01.653Z,11.61
2023-02-18T01:05:46.678Z,11.70
2023-02-18T01:08:31.711Z,11.66
2023-02-18T01:11:16.553Z,11.40
2023-02-18T01:14:01.489Z,11.62
2023-02-18T01:16:46.550Z,11.58
2023-02-18T01:19:31.469Z,11.70
2023-02-18T01:22:16.349Z,10.96
2023-02-18T01:25:01.264Z,10.89
2023-02-18T01:27:46.071Z,10.86
2023-02-18T01:30:30.919Z,10.63
2023-02-18T01:33:16.060Z,10.94
2023-02-18T01:36:00.889Z,10.82
2023-02-18T01:38:45.770Z,10.48
2023-02-18T01:41:30.594Z,10.56
2023-02-18T01:44:15.628Z,10.61
2023-02-18T01:47:00.572Z,10.39
2023-02-18T01:49:45.568Z,10.86
2023-02-18T01:52:30.443Z,10.51
2023-02-18T01:55:15.496Z,10.04
2023-02-18T01:58:00.648Z,10.42
2023-02-18T02:00:45.664Z,10.49
2023-02-18T02:03:30.710Z,10.39
2023-02-18T02:06:15.476Z,10.22
2023-02-18T02:09:00.504Z,9.85
2023-02-18T02:11:45.393Z,9.83
2023-02-18T02:14:30.361Z,9.18
2023-02-18T02:17:15.234Z,9.70
2023-02-18T02:20:00.138Z,9.28
2023-02-18T02:22:45.177Z,9.38
2023-02-18T02:25:30.082Z,9.54
2023-02-18T02:28:14.974Z,9.42
2023-02-18T02:30:59.812Z,9.66
2023-02-18T02:33:44.803Z,9.03
2023-02-18T02:36:29.503Z,9.13
2023-02-18T02:39:14.510Z,8.86
2023-02-18T02:41:59.320Z,8.86
2023-02-18T02:44:44.070Z,9.24
2023-02-18T02:47:28.911Z,9.37
2023-02-18T02:50:13.855Z,9.74
2023-02-18T02:52:58.762Z,9.58
2023-02-18T02:55:43.518Z,9.64
2023-02-18T02:58:28.538Z,9.66
2023-02-18T03:01:13.391Z,10.28
2023-02-18T03:03:58.350Z,10.44
2023-02-18T03:06:43.251Z,10.72
2023-02-18T03:09:28.174Z,10.68
2023-02-18T03:12:12.957Z,9.71
2023-02-18T03:14:57.936Z,7.98
2023-02-18T03:17:42.894Z,7.82
2023-02-18T03:20:27.704Z,8.19
2023-02-18T03:23:12.741Z,7.35
2023-02-18T03:25:57.545Z,7.23
2023-02-18T03:28:42.302Z,7.05
2023-02-18T03:31:27.314Z,7.58
2023-02-18T03:34:12.176Z,7.21
2023-02-18T03:36:56.974Z,6.99
2023-02-18T03:39:41.947Z,7.43
2023-02-18T03:42:26.802Z,7.25
2023-02-18T03:45:11.766Z,7.36
2023-02-18T03:47:56.805Z,7.63
2023-02-18T03:50:41.530Z,7.32
2023-02-18T03:53:26.488Z,7.01
2023-02-18T03:56:11.450Z,7.19
2023-02-18T03:58:56.355Z,6.93
2023-02-18T04:01:41.084Z,6.37
2023-02-18T04:04:26.104Z,6.85
2023-02-18T04:07:10.883Z,7.01
2023-02-18T04:09:55.729Z,6.64
2023-02-18T04:12:40.706Z,6.62
2023-02-18T04:15:25.559Z,6.49
2023-02-18T04:18:10.454Z,6.43
2023-02-18T04:20:55.482Z,6.61
2023-02-18T04:23:40.362Z,6.29
2023-02-18T04:26:25.224Z,6.20
2023-02-18T04:29:10.282Z,6.02
2023-02-18T04:31:55.286Z,5.93
2023-02-18T04:34:40.148Z,6.07
2023-02-18T04:37:24.988Z,6.01
2023-02-18T04:40:09.879Z,6.03
2023-02-18T04:42:54.823Z,5.78
2023-02-18T04:45:39.637Z,5.82
2023-02-18T04:48:24.477Z,5.85
2023-02-18T04:51:09.348Z,5.70
2023-02-18T04:53:54.284Z,5.63
2023-02-18T04:56:39.148Z,5.71
2023-02-18T04:59:23.957Z,5.43
2023-02-18T05:02:08.807Z,5.52
2023-02-18T05:04:53.560Z,5.58
2023-02-18T05:07:38.494Z,5.29
2023-02-18T05:10:23.358Z,5.08
2023-02-18T05:13:08.215Z,5.41
2023-02-18T05:15:52.945Z,5.31
2023-02-18T05:18:37.745Z,5.34
2023-02-18T05:21:22.621Z,5.29
2023-02-18T05:24:07.378Z,5.37
2023-02-18T05:26:52.338Z,5.64
2023-02-18T05:29:37.301Z,5.25
2023-02-18T05:32:22.200Z,5.42
2023-02-18T05:35:07.052Z,5.72
2023-02-18T05:37:51.932Z,5.64
2023-02-18T05:40:36.775Z,5.69
2023-02-18T05:43:21.749Z,6.22
2023-02-18T05:46:07.058Z,5.95
2023-02-18T05:48:51.991Z,6.39
2023-02-18T05:51:36.873Z,6.62
2023-02-18T05:54:21.816Z,6.96
2023-02-18T05:57:06.689Z,6.78
2023-02-18T05:59:51.446Z,7.19
2023-02-18T06:02:36.394Z,7.28
2023-02-18T06:05:21.129Z,6.95
2023-02-18T06:08:06.190Z,7.22
2023-02-18T06:10:50.929Z,6.92
2023-02-18T06:13:35.913Z,6.26
2023-02-18T06:16:20.849Z,5.99
2023-02-18T06:19:05.827Z,6.08
2023-02-18T06:24:35.612Z,5.66
2023-02-18T06:27:20.449Z,6.38
2023-02-18T06:30:05.282Z,6.41
2023-02-18T06:32:50.119Z,6.48
2023-02-18T06:35:34.993Z,6.40
2023-02-18T06:38:19.966Z,6.91
2023-02-18T06:41:04.816Z,7.00
2023-02-18T06:43:49.636Z,7.21
2023-02-18T06:46:34.718Z,7.49
2023-02-18T06:49:19.943Z,7.23
2023-02-18T06:52:04.960Z,7.37
2023-02-18T06:54:49.839Z,7.93
2023-02-18T06:57:34.706Z,8.12
2023-02-18T07:00:19.526Z,7.90
2023-02-18T07:03:04.464Z,7.92
2023-02-18T07:05:49.231Z,7.77
2023-02-18T07:08:34.029Z,7.28
2023-02-18T07:11:18.870Z,7.22
2023-02-18T07:14:03.766Z,6.51
2023-02-18T07:16:48.713Z,6.68
2023-02-18T07:19:33.356Z,6.74
2023-02-18T07:22:18.293Z,6.67
2023-02-18T07:25:03.106Z,6.74
2023-02-18T07:27:48.157Z,6.70
2023-02-18T07:30:33.277Z,6.49
2023-02-18T07:33:18.622Z,6.86
2023-02-18T07:36:03.623Z,6.79
2023-02-18T07:38:48.368Z,6.68
2023-02-18T07:41:33.304Z,6.23
2023-02-18T07:44:18.107Z,6.65
2023-02-18T07:47:02.984Z,6.31
2023-02-18T07:49:47.781Z,6.32
2023-02-18T07:52:32.730Z,6.35
2023-02-18T07:55:17.630Z,6.34
2023-02-18T07:58:02.623Z,6.07
2023-02-18T08:00:47.531Z,6.04
2023-02-18T08:03:32.301Z,6.03
2023-02-18T08:06:17.337Z,6.35
2023-02-18T08:09:02.263Z,6.75
2023-02-18T08:11:47.125Z,6.44
2023-02-18T08:14:31.996Z,6.42
2023-02-18T08:17:16.986Z,6.72
2023-02-18T08:20:01.962Z,7.17
2023-02-18T08:22:46.896Z,7.15
2023-02-18T08:25:31.793Z,7.63
2023-02-18T08:28:16.646Z,7.88
2023-02-18T08:31:01.625Z,8.23
2023-02-18T08:33:46.876Z,9.09
2023-02-18T08:36:31.771Z,9.44
2023-02-18T08:39:16.499Z,10.12
2023-02-18T08:42:01.454Z,10.01
2023-02-18T08:44:46.363Z,10.71
2023-02-18T08:48:17.401Z,10.74
2023-02-18T08:50:36.280Z,10.93
2023-02-18T08:53:21.108Z,10.92
2023-02-18T08:56:06.054Z,9.87
2023-02-18T08:58:50.968Z,9.18
2023-02-18T09:01:35.885Z,8.95
2023-02-18T09:04:20.718Z,8.75
2023-02-18T09:07:05.551Z,8.35
2023-02-18T09:09:50.402Z,7.63
2023-02-18T09:12:35.246Z,8.27
2023-02-18T09:15:20.137Z,7.91
2023-02-18T09:18:04.953Z,7.75
2023-02-18T09:20:50.028Z,7.97
2023-02-18T09:23:34.920Z,7.76
2023-02-18T09:26:19.684Z,7.78
2023-02-18T09:29:04.679Z,7.27
2023-02-18T09:31:49.664Z,7.30
2023-02-18T09:34:34.898Z,7.36
2023-02-18T09:37:19.735Z,7.74
2023-02-18T09:40:04.579Z,7.56
2023-02-18T09:42:49.486Z,7.58
2023-02-18T09:45:34.549Z,8.00
2023-02-18T09:48:19.406Z,7.71
2023-02-18T09:51:04.304Z,7.76
2023-02-18T09:53:49.189Z,7.88
2023-02-18T09:56:34.057Z,7.84
2023-02-18T09:59:19.014Z,7.91
2023-02-18T10:02:03.869Z,7.89
2023-02-18T10:04:48.607Z,7.83
2023-02-18T10:07:33.428Z,7.79
2023-02-18T10:10:18.219Z,7.99
2023-02-18T10:13:03.214Z,7.97
2023-02-18T10:15:48.059Z,7.62
2023-02-18T10:18:33.020Z,7.27
2023-02-18T10:21:17.853Z,7.08
2023-02-18T10:24:02.754Z,7.26
2023-02-18T10:26:47.474Z,7.56
2023-02-18T10:29:32.481Z,7.45
2023-02-18T10:32:17.195Z,7.90
2023-02-18T10:35:02.069Z,6.95
2023-02-18T10:37:47.053Z,7.12
2023-02-18T10:40:31.880Z,7.13
2023-02-18T10:43:16.922Z,7.01
2023-02-18T10:46:01.707Z,7.21
2023-02-18T10:48:46.656Z,7.75
2023-02-18T10:51:31.707Z,7.04
2023-02-18T10:54:17.220Z,6.92
2023-02-18T10:57:01.967Z,7.27
2023-02-18T10:59:46.898Z,7.08
2023-02-18T11:02:32.668Z,7.57
2023-02-18T11:05:17.836Z,7.13
2023-02-18T11:08:02.675Z,6.94
2023-02-18T11:10:47.578Z,6.68
2023-02-18T11:13:32.699Z,6.78
2023-02-18T11:16:17.705Z,6.76
2023-02-18T11:19:02.369Z,7.18
2023-02-18T11:21:47.244Z,7.52
2023-02-18T11:24:32.270Z,7.42
2023-02-18T11:27:17.232Z,7.38
2023-02-18T11:30:02.233Z,7.34
2023-02-18T11:32:47.473Z,7.36
2023-02-18T11:35:32.297Z,7.45
2023-02-18T11:38:17.396Z,8.29
2023-02-18T11:41:02.286Z,8.42
2023-02-18T11:43:47.357Z,7.89
2023-02-18T11:46:32.141Z,7.85
2023-02-18T11:49:16.958Z,7.78
2023-02-18T11:52:02.435Z,7.69
2023-02-18T11:54:47.314Z,7.86
2023-02-18T11:57:32.265Z,8.04
2023-02-18T12:00:17.327Z,8.17
2023-02-18T12:03:02.172Z,7.67
2023-02-18T12:05:46.941Z,7.61
2023-02-18T12:08:32.123Z,7.50
2023-02-18T12:11:16.913Z,7.63
2023-02-18T12:14:01.841Z,7.58
2023-02-18T12:16:47.263Z,7.61
2023-02-18T12:19:32.596Z,7.39
2023-02-18T12:22:17.494Z,7.32
2023-02-18T12:25:02.266Z,8.33
2023-02-18T12:27:47.292Z,7.76
2023-02-18T12:30:32.354Z,7.80
2023-02-18T12:33:17.111Z,8.39
2023-02-18T12:36:02.134Z,8.82
2023-02-18T12:38:46.892Z,7.73
2023-02-18T12:41:31.768Z,6.95
2023-02-18T12:44:16.682Z,6.64
2023-02-18T12:47:01.558Z,5.89
2023-02-18T12:49:46.444Z,5.85
2023-02-18T12:52:31.470Z,6.24
2023-02-18T12:55:16.292Z,5.74
2023-02-18T12:58:01.257Z,5.80
2023-02-18T13:00:46.238Z,6.04
2023-02-18T13:03:31.097Z,5.68
2023-02-18T13:06:16.059Z,5.96
2023-02-18T13:09:00.764Z,5.93
2023-02-18T13:11:45.749Z,6.29
2023-02-18T13:14:30.635Z,6.13
2023-02-18T13:17:15.505Z,7.83
2023-02-18T13:20:00.431Z,7.44
2023-02-18T13:22:45.286Z,7.61
2023-02-18T13:25:30.316Z,6.49
2023-02-18T13:28:15.178Z,7.15
2023-02-18T13:31:00.298Z,6.96
2023-02-18T13:33:45.411Z,7.52
2023-02-18T13:36:30.296Z,8.14
2023-02-18T13:39:15.084Z,8.64
2023-02-18T13:41:59.910Z,8.36
2023-02-18T13:44:44.681Z,8.68
2023-02-18T13:47:29.569Z,8.38
2023-02-18T13:50:14.518Z,8.21
2023-02-18T13:52:59.404Z,8.63
2023-02-18T13:55:44.412Z,7.99
2023-02-18T13:58:29.151Z,8.28
2023-02-18T14:01:14.046Z,7.79
2023-02-18T14:03:58.828Z,8.29
2023-02-18T14:06:43.821Z,7.89
2023-02-18T14:09:28.694Z,8.17
2023-02-18T14:12:13.555Z,8.00
2023-02-18T14:14:58.345Z,8.54
2023-02-18T14:17:43.065Z,8.19
2023-02-18T14:20:27.962Z,7.76
2023-02-18T14:23:12.885Z,8.46
2023-02-18T14:25:57.793Z,7.98
2023-02-18T14:28:42.478Z,8.44
2023-02-18T14:31:30.576Z,8.67
2023-02-18T14:34:15.973Z,8.80
2023-02-18T14:37:00.846Z,9.05
2023-02-18T14:39:45.882Z,8.58
2023-02-18T14:42:30.666Z,8.73
2023-02-18T14:45:15.636Z,8.41
2023-02-18T14:48:00.417Z,8.18
2023-02-18T14:50:45.299Z,8.59
2023-02-18T14:53:30.029Z,8.77
2023-02-18T14:56:14.913Z,8.83
2023-02-18T14:58:59.863Z,8.44
2023-02-18T15:01:44.777Z,8.10
2023-02-18T15:04:29.765Z,8.29
2023-02-18T15:07:14.602Z,8.36
2023-02-18T15:09:59.560Z,9.86
2023-02-18T15:12:44.415Z,9.62
2023-02-18T15:15:29.281Z,9.50
2023-02-18T15:18:14.264Z,9.69
2023-02-18T15:20:58.992Z,9.70
2023-02-18T15:23:44.032Z,9.91
2023-02-18T15:26:28.834Z,10.76
2023-02-18T15:29:13.786Z,10.27
2023-02-18T15:31:58.639Z,9.56
2023-02-18T15:34:43.894Z,10.41
2023-02-18T15:37:28.694Z,9.71
2023-02-18T15:40:13.528Z,9.74
2023-02-18T15:42:58.485Z,9.85
2023-02-18T15:45:43.442Z,9.75
2023-02-18T15:48:28.740Z,9.73
2023-02-18T15:51:17.740Z,10.05
2023-02-18T15:54:03.227Z,9.57
2023-02-18T15:56:48.215Z,9.76
2023-02-18T15:59:33.003Z,9.50
2023-02-18T16:02:17.890Z,9.24
2023-02-18T16:05:05.097Z,9.09
2023-02-18T16:07:50.608Z,9.01
2023-02-18T16:10:35.494Z,8.90
2023-02-18T16:13:20.373Z,8.80
2023-02-18T16:16:05.304Z,8.27
2023-02-18T16:18:50.050Z,8.75
2023-02-18T16:21:34.912Z,8.36
2023-02-18T16:24:19.750Z,8.69
2023-02-18T16:27:04.707Z,8.38
2023-02-18T16:29:49.493Z,7.98
2023-02-18T16:32:34.491Z,8.02
2023-02-18T16:35:19.454Z,8.11
2023-02-18T16:38:04.237Z,7.31
2023-02-18T16:40:49.172Z,7.71
2023-02-18T16:43:34.051Z,7.36
2023-02-18T16:46:18.986Z,7.26
2023-02-18T16:49:03.770Z,8.07
2023-02-18T16:51:48.799Z,8.32
2023-02-18T16:54:33.677Z,7.72
2023-02-18T16:57:18.524Z,7.14
2023-02-18T17:00:03.379Z,6.77
2023-02-18T17:02:48.120Z,6.51
2023-02-18T17:05:33.059Z,6.08
2023-02-18T17:08:18.009Z,6.83
2023-02-18T17:11:03.088Z,8.77
2023-02-18T17:13:47.912Z,9.50
2023-02-18T17:16:32.852Z,9.78
2023-02-18T17:19:17.665Z,9.40
2023-02-18T17:22:02.513Z,8.96
2023-02-18T17:24:47.331Z,8.97
2023-02-18T17:27:32.166Z,9.07
2023-02-18T17:30:17.162Z,8.83
2023-02-18T17:33:03.180Z,8.68
2023-02-18T17:35:48.416Z,9.01
2023-02-18T17:38:33.274Z,9.17
2023-02-18T17:41:18.212Z,8.70
2023-02-18T17:44:03.202Z,8.60
2023-02-18T17:46:47.934Z,8.71
2023-02-18T17:49:32.829Z,8.60
2023-02-18T17:52:17.657Z,8.87
2023-02-18T17:55:02.500Z,8.43
2023-02-18T17:57:47.300Z,8.47
2023-02-18T18:00:32.356Z,8.77
2023-02-18T18:03:17.062Z,8.53
2023-02-18T18:06:02.007Z,8.76
2023-02-18T18:08:46.758Z,8.73
2023-02-18T18:11:31.838Z,8.79
2023-02-18T18:14:16.657Z,8.54
2023-02-18T18:17:01.553Z,8.60
2023-02-18T18:19:46.541Z,7.97
2023-02-18T18:22:31.376Z,7.68
2023-02-18T18:25:16.466Z,7.75
2023-02-18T18:28:01.257Z,7.30
2023-02-18T18:30:46.676Z,6.86
2023-02-18T18:33:31.535Z,7.18
2023-02-18T18:36:16.466Z,7.72
2023-02-18T18:39:01.339Z,7.31
2023-02-18T18:41:46.124Z,7.07
2023-02-18T18:44:30.996Z,6.51
2023-02-18T18:47:15.761Z,6.47
2023-02-18T18:50:00.596Z,6.45
2023-02-18T18:52:45.309Z,6.37
2023-02-18T18:55:30.428Z,6.32
2023-02-18T18:58:15.374Z,6.48
2023-02-18T19:01:00.550Z,7.39
2023-02-18T19:03:45.799Z,8.37
2023-02-18T19:06:30.582Z,8.40
2023-02-18T19:09:15.605Z,9.36
2023-02-18T19:12:00.327Z,9.60
2023-02-18T19:14:45.161Z,8.91
2023-02-18T19:17:30.125Z,8.69
2023-02-18T19:20:15.041Z,8.77
2023-02-18T19:22:59.877Z,8.61
2023-02-18T19:25:44.795Z,8.79
2023-02-18T19:28:29.720Z,9.73
2023-02-18T19:31:15.183Z,9.91
2023-02-18T19:34:00.534Z,10.10
2023-02-18T19:36:45.842Z,10.09
2023-02-18T19:39:30.704Z,9.94
2023-02-18T19:42:15.562Z,9.57
2023-02-18T19:45:00.432Z,9.57
2023-02-18T19:47:45.458Z,9.35
2023-02-18T19:50:30.352Z,8.72
2023-02-18T19:53:15.207Z,8.19
2023-02-18T19:56:02.295Z,9.03
2023-02-18T19:58:47.825Z,9.52
2023-02-18T20:01:32.740Z,9.91
2023-02-18T20:04:18.114Z,9.59
2023-02-18T20:07:03.110Z,9.79
2023-02-18T20:09:47.822Z,9.91
2023-02-18T20:12:32.765Z,10.56
2023-02-18T20:15:17.582Z,11.24
2023-02-18T20:18:02.457Z,10.90
2023-02-18T20:20:47.202Z,10.57
2023-02-18T20:23:32.153Z,9.94
2023-02-18T20:26:17.062Z,9.29
2023-02-18T20:29:01.874Z,9.33
2023-02-18T20:31:47.086Z,8.92
2023-02-18T20:34:32.257Z,8.42
2023-02-18T20:37:17.234Z,8.21
2023-02-18T20:40:02.216Z,8.54
2023-02-18T20:42:46.973Z,8.61
2023-02-18T20:45:31.739Z,8.88
2023-02-18T20:48:16.753Z,8.96
2023-02-18T20:51:01.674Z,9.36
2023-02-18T20:53:46.567Z,8.88
2023-02-18T20:56:31.504Z,9.62
2023-02-18T20:59:16.475Z,9.67
2023-02-18T21:02:01.545Z,9.39
2023-02-18T21:04:46.345Z,9.61
2023-02-18T21:07:31.349Z,9.91
2023-02-18T21:10:16.215Z,9.11
2023-02-18T21:13:01.079Z,9.29
2023-02-18T21:15:46.111Z,8.83
2023-02-18T21:18:30.758Z,8.67
2023-02-18T21:21:15.719Z,8.66
2023-02-18T21:24:00.480Z,8.94
2023-02-18T21:26:45.444Z,8.61
2023-02-18T21:29:30.270Z,8.68
2023-02-18T21:32:15.124Z,8.24
2023-02-18T21:34:59.821Z,8.05
2023-02-18T21:37:44.733Z,7.95
2023-02-18T21:40:29.568Z,8.14
2023-02-18T21:43:14.533Z,7.68
2023-02-18T21:45:59.470Z,7.83
2023-02-18T21:48:44.309Z,8.08
2023-02-18T21:51:29.157Z,7.59
2023-02-18T21:54:13.949Z,7.67
2023-02-18T21:56:59.148Z,8.17
2023-02-18T21:59:43.939Z,8.15
2023-02-18T22:02:30.151Z,8.00
2023-02-18T22:05:15.281Z,7.78
2023-02-18T22:08:00.284Z,8.15
2023-02-18T22:10:45.271Z,8.25
2023-02-18T22:13:30.116Z,7.89
2023-02-18T22:16:15.056Z,7.81
2023-02-18T22:18:59.995Z,8.11
2023-02-18T22:21:44.837Z,8.53
2023-02-18T22:24:29.823Z,8.62
2023-02-18T22:27:14.785Z,8.75
2023-02-18T22:29:59.828Z,8.60
2023-02-18T22:32:44.638Z,8.58
2023-02-18T22:35:29.650Z,9.29
2023-02-18T22:38:14.490Z,9.05
2023-02-18T22:40:59.359Z,8.70
2023-02-18T22:43:44.130Z,8.91
2023-02-18T22:46:28.968Z,8.66
2023-02-18T22:49:13.736Z,9.28
2023-02-18T22:51:58.526Z,9.06
2023-02-18T22:54:43.509Z,8.55
2023-02-18T22:57:28.174Z,8.94
2023-02-18T23:00:13.098Z,9.32
2023-02-18T23:02:57.814Z,8.91
2023-02-18T23:05:42.748Z,8.91
2023-02-18T23:08:27.658Z,8.73
2023-02-18T23:11:12.795Z,8.78
2023-02-18T23:13:58.047Z,8.53
2023-02-18T23:16:43.003Z,8.03
2023-02-18T23:19:27.720Z,8.45
2023-02-18T23:22:12.529Z,8.46
2023-02-18T23:24:57.426Z,8.31
2023-02-18T23:27:42.150Z,8.43
2023-02-18T23:30:27.197Z,8.83
2023-02-18T23:33:12.424Z,7.84
2023-02-18T23:35:57.275Z,8.56
2023-02-18T23:38:42.161Z,8.79
2023-02-18T23:41:27.078Z,9.05
2023-02-18T23:44:12.053Z,8.64
2023-02-18T23:46:56.832Z,8.47
2023-02-18T23:49:41.654Z,8.67
2023-02-18T23:52:26.589Z,8.29
2023-02-18T23:55:11.457Z,8.37
2023-02-18T23:57:56.220Z,8.46
